sensor_id;sensor_type;location;lat;lon;timestamp;temperature;humidity
13049;DHT22;6591;51.446;5.404;2022-07-25T00:01:03;23.60;79.60
13049;DHT22;6591;51.446;5.404;2022-07-25T00:03:32;23.60;79.30
13049;DHT22;6591;51.446;5.404;2022-07-25T00:05:59;23.60;79.50
13049;DHT22;6591;51.446;5.404;2022-07-25T00:08:30;23.50;79.70
13049;DHT22;6591;51.446;5.404;2022-07-25T00:10:57;24.30;80.00
13049;DHT22;6591;51.446;5.404;2022-07-25T00:13:25;24.40;80.70
13049;DHT22;6591;51.446;5.404;2022-07-25T00:15:52;24.90;81.30
13049;DHT22;6591;51.446;5.404;2022-07-25T00:18:19;23.30;80.50
13049;DHT22;6591;51.446;5.404;2022-07-25T00:20:46;24.50;81.90
13049;DHT22;6591;51.446;5.404;2022-07-25T00:23:14;23.30;81.40
13049;DHT22;6591;51.446;5.404;2022-07-25T00:25:41;24.00;82.00
13049;DHT22;6591;51.446;5.404;2022-07-25T00:28:08;23.60;82.00
13049;DHT22;6591;51.446;5.404;2022-07-25T00:30:35;24.00;82.50
13049;DHT22;6591;51.446;5.404;2022-07-25T00:33:02;23.10;82.30
13049;DHT22;6591;51.446;5.404;2022-07-25T00:35:29;23.10;82.40
13049;DHT22;6591;51.446;5.404;2022-07-25T00:37:56;23.10;82.60
13049;DHT22;6591;51.446;5.404;2022-07-25T00:40:23;23.10;82.80
13049;DHT22;6591;51.446;5.404;2022-07-25T00:42:50;23.10;83.00
13049;DHT22;6591;51.446;5.404;2022-07-25T00:45:21;23.00;83.40
13049;DHT22;6591;51.446;5.404;2022-07-25T00:47:48;23.00;83.80
13049;DHT22;6591;51.446;5.404;2022-07-25T00:50:16;22.90;84.00
13049;DHT22;6591;51.446;5.404;2022-07-25T00:52:45;23.10;84.80
13049;DHT22;6591;51.446;5.404;2022-07-25T00:55:13;22.90;85.20
13049;DHT22;6591;51.446;5.404;2022-07-25T00:57:40;23.80;86.00
13049;DHT22;6591;51.446;5.404;2022-07-25T01:00:12;22.80;85.40
13049;DHT22;6591;51.446;5.404;2022-07-25T01:02:41;22.80;85.70
13049;DHT22;6591;51.446;5.404;2022-07-25T01:05:08;22.80;85.50
13049;DHT22;6591;51.446;5.404;2022-07-25T01:07:37;22.70;85.70
13049;DHT22;6591;51.446;5.404;2022-07-25T01:10:06;22.70;85.70
13049;DHT22;6591;51.446;5.404;2022-07-25T01:12:50;22.70;85.90
13049;DHT22;6591;51.446;5.404;2022-07-25T01:15:21;22.70;86.70
13049;DHT22;6591;51.446;5.404;2022-07-25T01:17:53;24.40;86.90
13049;DHT22;6591;51.446;5.404;2022-07-25T01:20:25;22.70;85.60
13049;DHT22;6591;51.446;5.404;2022-07-25T01:22:55;22.70;86.70
13049;DHT22;6591;51.446;5.404;2022-07-25T01:25:23;22.70;86.40
13049;DHT22;6591;51.446;5.404;2022-07-25T01:27:51;24.00;87.30
13049;DHT22;6591;51.446;5.404;2022-07-25T01:30:22;22.70;86.60
13049;DHT22;6591;51.446;5.404;2022-07-25T01:32:50;24.00;87.50
13049;DHT22;6591;51.446;5.404;2022-07-25T01:35:19;23.90;87.40
13049;DHT22;6591;51.446;5.404;2022-07-25T01:37:46;22.70;86.50
13049;DHT22;6591;51.446;5.404;2022-07-25T01:40:13;22.70;86.80
13049;DHT22;6591;51.446;5.404;2022-07-25T01:42:41;22.70;87.00
13049;DHT22;6591;51.446;5.404;2022-07-25T01:45:10;23.50;87.70
13049;DHT22;6591;51.446;5.404;2022-07-25T01:47:38;22.70;87.20
13049;DHT22;6591;51.446;5.404;2022-07-25T01:50:06;22.70;87.30
13049;DHT22;6591;51.446;5.404;2022-07-25T01:52:36;22.70;87.40
13049;DHT22;6591;51.446;5.404;2022-07-25T01:55:05;21.00;86.40
13049;DHT22;6591;51.446;5.404;2022-07-25T01:57:34;22.70;87.60
13049;DHT22;6591;51.446;5.404;2022-07-25T02:00:04;23.40;88.10
13049;DHT22;6591;51.446;5.404;2022-07-25T02:02:46;22.70;88.00
13049;DHT22;6591;51.446;5.404;2022-07-25T02:05:18;22.80;88.60
13049;DHT22;6591;51.446;5.404;2022-07-25T02:07:46;24.40;89.00
13049;DHT22;6591;51.446;5.404;2022-07-25T02:10:12;22.90;87.60
13049;DHT22;6591;51.446;5.404;2022-07-25T02:12:39;22.80;87.90
13049;DHT22;6591;51.446;5.404;2022-07-25T02:15:07;22.80;87.70
13049;DHT22;6591;51.446;5.404;2022-07-25T02:17:35;22.80;88.00
13049;DHT22;6591;51.446;5.404;2022-07-25T02:20:02;22.90;87.80
13049;DHT22;6591;51.446;5.404;2022-07-25T02:22:29;22.90;88.00
13049;DHT22;6591;51.446;5.404;2022-07-25T02:24:59;24.80;89.10
13049;DHT22;6591;51.446;5.404;2022-07-25T02:27:26;23.70;88.40
13049;DHT22;6591;51.446;5.404;2022-07-25T02:29:53;25.70;89.60
13049;DHT22;6591;51.446;5.404;2022-07-25T02:32:22;24.20;88.70
13049;DHT22;6591;51.446;5.404;2022-07-25T02:34:50;22.80;87.90
13049;DHT22;6591;51.446;5.404;2022-07-25T02:37:17;22.90;88.10
13049;DHT22;6591;51.446;5.404;2022-07-25T02:39:45;23.20;88.10
13049;DHT22;6591;51.446;5.404;2022-07-25T02:42:12;23.70;88.60
13049;DHT22;6591;51.446;5.404;2022-07-25T02:44:39;22.90;88.90
13049;DHT22;6591;51.446;5.404;2022-07-25T02:47:06;23.90;88.90
13049;DHT22;6591;51.446;5.404;2022-07-25T02:49:34;23.80;88.80
13049;DHT22;6591;51.446;5.404;2022-07-25T02:52:00;23.60;88.60
13049;DHT22;6591;51.446;5.404;2022-07-25T02:54:27;22.70;88.00
13049;DHT22;6591;51.446;5.404;2022-07-25T02:56:54;22.70;88.00
13049;DHT22;6591;51.446;5.404;2022-07-25T02:59:21;22.70;88.20
13049;DHT22;6591;51.446;5.404;2022-07-25T03:01:58;22.70;88.40
13049;DHT22;6591;51.446;5.404;2022-07-25T03:04:25;24.60;89.90
13049;DHT22;6591;51.446;5.404;2022-07-25T03:06:53;23.70;89.40
13049;DHT22;6591;51.446;5.404;2022-07-25T03:09:20;23.80;89.50
13049;DHT22;6591;51.446;5.404;2022-07-25T03:11:49;22.60;88.80
13049;DHT22;6591;51.446;5.404;2022-07-25T03:14:17;22.60;88.90
13049;DHT22;6591;51.446;5.404;2022-07-25T03:16:45;22.60;88.90
13049;DHT22;6591;51.446;5.404;2022-07-25T03:19:12;22.50;89.00
13049;DHT22;6591;51.446;5.404;2022-07-25T03:21:40;23.30;89.70
13049;DHT22;6591;51.446;5.404;2022-07-25T03:24:07;23.60;89.80
13049;DHT22;6591;51.446;5.404;2022-07-25T03:26:36;22.40;89.30
13049;DHT22;6591;51.446;5.404;2022-07-25T03:29:03;23.10;89.90
13049;DHT22;6591;51.446;5.404;2022-07-25T03:31:30;22.50;89.60
13049;DHT22;6591;51.446;5.404;2022-07-25T03:33:57;24.40;90.40
13049;DHT22;6591;51.446;5.404;2022-07-25T03:36:28;22.40;89.70
13049;DHT22;6591;51.446;5.404;2022-07-25T03:38:54;22.40;89.70
13049;DHT22;6591;51.446;5.404;2022-07-25T03:41:23;22.60;90.00
13049;DHT22;6591;51.446;5.404;2022-07-25T03:43:54;22.40;89.90
13049;DHT22;6591;51.446;5.404;2022-07-25T03:46:21;22.30;90.10
13049;DHT22;6591;51.446;5.404;2022-07-25T03:48:49;24.30;90.60
13049;DHT22;6591;51.446;5.404;2022-07-25T03:51:16;22.40;90.00
13049;DHT22;6591;51.446;5.404;2022-07-25T03:53:43;22.40;90.00
13049;DHT22;6591;51.446;5.404;2022-07-25T03:56:46;22.40;90.30
13049;DHT22;6591;51.446;5.404;2022-07-25T03:59:16;22.30;90.20
13049;DHT22;6591;51.446;5.404;2022-07-25T04:01:47;24.10;90.70
13049;DHT22;6591;51.446;5.404;2022-07-25T04:04:15;22.40;90.50
13049;DHT22;6591;51.446;5.404;2022-07-25T04:06:43;22.30;90.20
13049;DHT22;6591;51.446;5.404;2022-07-25T04:09:15;22.40;90.30
13049;DHT22;6591;51.446;5.404;2022-07-25T04:11:42;22.40;90.30
13049;DHT22;6591;51.446;5.404;2022-07-25T04:14:09;22.50;90.30
13049;DHT22;6591;51.446;5.404;2022-07-25T04:16:39;22.40;90.30
13049;DHT22;6591;51.446;5.404;2022-07-25T04:19:07;24.80;91.00
13049;DHT22;6591;51.446;5.404;2022-07-25T04:21:34;24.10;90.80
13049;DHT22;6591;51.446;5.404;2022-07-25T04:24:01;24.80;91.10
13049;DHT22;6591;51.446;5.404;2022-07-25T04:26:29;22.50;90.30
13049;DHT22;6591;51.446;5.404;2022-07-25T04:28:57;22.60;90.30
13049;DHT22;6591;51.446;5.404;2022-07-25T04:31:24;24.00;90.80
13049;DHT22;6591;51.446;5.404;2022-07-25T04:33:51;22.60;90.70
13049;DHT22;6591;51.446;5.404;2022-07-25T04:36:18;22.60;90.20
13049;DHT22;6591;51.446;5.404;2022-07-25T04:38:47;22.60;90.40
13049;DHT22;6591;51.446;5.404;2022-07-25T04:41:15;23.30;90.50
13049;DHT22;6591;51.446;5.404;2022-07-25T04:43:42;23.40;90.50
13049;DHT22;6591;51.446;5.404;2022-07-25T04:46:19;22.70;90.40
13049;DHT22;6591;51.446;5.404;2022-07-25T04:48:47;22.70;90.50
13049;DHT22;6591;51.446;5.404;2022-07-25T04:51:18;22.80;90.40
13049;DHT22;6591;51.446;5.404;2022-07-25T04:53:45;22.80;90.30
13049;DHT22;6591;51.446;5.404;2022-07-25T04:56:12;24.60;90.80
13049;DHT22;6591;51.446;5.404;2022-07-25T04:58:39;23.90;90.60
13049;DHT22;6591;51.446;5.404;2022-07-25T05:01:07;23.80;90.50
13049;DHT22;6591;51.446;5.404;2022-07-25T05:03:34;23.00;90.20
13049;DHT22;6591;51.446;5.404;2022-07-25T05:06:01;24.30;90.50
13049;DHT22;6591;51.446;5.404;2022-07-25T05:08:28;23.20;90.20
13049;DHT22;6591;51.446;5.404;2022-07-25T05:10:57;25.10;90.80
13049;DHT22;6591;51.446;5.404;2022-07-25T05:13:23;25.60;90.90
13049;DHT22;6591;51.446;5.404;2022-07-25T05:15:50;23.40;90.20
13049;DHT22;6591;51.446;5.404;2022-07-25T05:18:18;24.50;90.50
13049;DHT22;6591;51.446;5.404;2022-07-25T05:20:49;24.80;90.50
13049;DHT22;6591;51.446;5.404;2022-07-25T05:23:17;23.70;90.20
13049;DHT22;6591;51.446;5.404;2022-07-25T05:25:44;23.80;90.00
13049;DHT22;6591;51.446;5.404;2022-07-25T05:28:10;23.90;89.90
13049;DHT22;6591;51.446;5.404;2022-07-25T05:30:41;24.00;89.60
13049;DHT22;6591;51.446;5.404;2022-07-25T05:33:08;24.50;89.60
13049;DHT22;6591;51.446;5.404;2022-07-25T05:35:35;24.30;89.30
13049;DHT22;6591;51.446;5.404;2022-07-25T05:38:03;24.40;89.00
13049;DHT22;6591;51.446;5.404;2022-07-25T05:40:30;24.50;88.80
13049;DHT22;6591;51.446;5.404;2022-07-25T05:43:02;24.70;88.60
13049;DHT22;6591;51.446;5.404;2022-07-25T05:45:30;25.00;88.40
13049;DHT22;6591;51.446;5.404;2022-07-25T05:47:57;24.80;88.30
13049;DHT22;6591;51.446;5.404;2022-07-25T05:50:24;24.80;88.20
13049;DHT22;6591;51.446;5.404;2022-07-25T05:52:51;25.70;89.50
13049;DHT22;6591;51.446;5.404;2022-07-25T05:55:18;25.00;87.90
13049;DHT22;6591;51.446;5.404;2022-07-25T05:57:48;25.00;87.70
13049;DHT22;6591;51.446;5.404;2022-07-25T06:00:15;25.00;87.20
13049;DHT22;6591;51.446;5.404;2022-07-25T06:02:43;25.20;87.30
13049;DHT22;6591;51.446;5.404;2022-07-25T06:05:10;25.20;86.90
13049;DHT22;6591;51.446;5.404;2022-07-25T06:07:39;25.80;87.20
13049;DHT22;6591;51.446;5.404;2022-07-25T06:10:07;25.30;86.60
13049;DHT22;6591;51.446;5.404;2022-07-25T06:12:34;25.30;86.40
13049;DHT22;6591;51.446;5.404;2022-07-25T06:15:03;25.30;85.90
13049;DHT22;6591;51.446;5.404;2022-07-25T06:17:32;25.30;85.90
13049;DHT22;6591;51.446;5.404;2022-07-25T06:19:59;27.50;87.10
13049;DHT22;6591;51.446;5.404;2022-07-25T06:22:26;25.30;85.40
13049;DHT22;6591;51.446;5.404;2022-07-25T06:24:53;25.30;85.20
13049;DHT22;6591;51.446;5.404;2022-07-25T06:27:20;26.30;86.20
13049;DHT22;6591;51.446;5.404;2022-07-25T06:29:53;25.30;85.20
13049;DHT22;6591;51.446;5.404;2022-07-25T06:32:24;26.60;86.50
13049;DHT22;6591;51.446;5.404;2022-07-25T06:34:51;26.40;86.90
13049;DHT22;6591;51.446;5.404;2022-07-25T06:37:21;25.30;85.10
13049;DHT22;6591;51.446;5.404;2022-07-25T06:39:49;25.30;84.70
13049;DHT22;6591;51.446;5.404;2022-07-25T06:42:16;25.20;84.40
13049;DHT22;6591;51.446;5.404;2022-07-25T06:44:43;25.30;84.50
13049;DHT22;6591;51.446;5.404;2022-07-25T06:47:10;25.20;84.30
13049;DHT22;6591;51.446;5.404;2022-07-25T06:49:41;25.30;84.50
13049;DHT22;6591;51.446;5.404;2022-07-25T06:52:08;25.30;84.40
13049;DHT22;6591;51.446;5.404;2022-07-25T06:54:36;25.20;84.40
13049;DHT22;6591;51.446;5.404;2022-07-25T06:57:03;25.20;84.60
13049;DHT22;6591;51.446;5.404;2022-07-25T06:59:30;25.20;85.10
13049;DHT22;6591;51.446;5.404;2022-07-25T07:01:58;25.30;85.00
13049;DHT22;6591;51.446;5.404;2022-07-25T07:04:25;27.50;87.00
13049;DHT22;6591;51.446;5.404;2022-07-25T07:06:52;27.40;86.90
13049;DHT22;6591;51.446;5.404;2022-07-25T07:09:23;26.30;86.20
13049;DHT22;6591;51.446;5.404;2022-07-25T07:11:50;25.60;85.20
13049;DHT22;6591;51.446;5.404;2022-07-25T07:14:16;26.40;86.00
13049;DHT22;6591;51.446;5.404;2022-07-25T07:16:46;25.60;85.10
13049;DHT22;6591;51.446;5.404;2022-07-25T07:19:16;25.60;85.00
13049;DHT22;6591;51.446;5.404;2022-07-25T07:21:43;25.80;85.40
13049;DHT22;6591;51.446;5.404;2022-07-25T07:24:14;25.60;85.40
13049;DHT22;6591;51.446;5.404;2022-07-25T07:26:51;27.50;86.90
13049;DHT22;6591;51.446;5.404;2022-07-25T07:29:21;25.80;85.90
13049;DHT22;6591;51.446;5.404;2022-07-25T07:31:48;25.90;85.30
13049;DHT22;6591;51.446;5.404;2022-07-25T07:34:18;26.00;85.70
13049;DHT22;6591;51.446;5.404;2022-07-25T07:36:46;26.10;85.30
13049;DHT22;6591;51.446;5.404;2022-07-25T07:39:13;26.10;85.00
13049;DHT22;6591;51.446;5.404;2022-07-25T07:41:41;26.20;84.70
13049;DHT22;6591;51.446;5.404;2022-07-25T07:44:13;26.60;85.00
13049;DHT22;6591;51.446;5.404;2022-07-25T07:46:40;26.30;84.30
13049;DHT22;6591;51.446;5.404;2022-07-25T07:49:07;26.20;84.30
13049;DHT22;6591;51.446;5.404;2022-07-25T07:51:36;26.30;84.50
13049;DHT22;6591;51.446;5.404;2022-07-25T07:54:04;26.30;84.40
13049;DHT22;6591;51.446;5.404;2022-07-25T07:56:52;26.30;85.40
13049;DHT22;6591;51.446;5.404;2022-07-25T07:59:19;26.40;85.50
13049;DHT22;6591;51.446;5.404;2022-07-25T08:01:46;26.60;85.60
13049;DHT22;6591;51.446;5.404;2022-07-25T08:04:38;26.90;85.60
13049;DHT22;6591;51.446;5.404;2022-07-25T08:07:07;27.20;85.30
13049;DHT22;6591;51.446;5.404;2022-07-25T08:09:34;27.90;85.50
13049;DHT22;6591;51.446;5.404;2022-07-25T08:12:01;27.80;84.60
13049;DHT22;6591;51.446;5.404;2022-07-25T08:14:27;28.00;83.50
13049;DHT22;6591;51.446;5.404;2022-07-25T08:16:59;29.10;83.70
13049;DHT22;6591;51.446;5.404;2022-07-25T08:19:26;29.10;82.70
13049;DHT22;6591;51.446;5.404;2022-07-25T08:21:53;28.30;81.80
13049;DHT22;6591;51.446;5.404;2022-07-25T08:24:20;29.70;82.70
13049;DHT22;6591;51.446;5.404;2022-07-25T08:26:49;28.40;81.40
13049;DHT22;6591;51.446;5.404;2022-07-25T08:29:16;29.20;82.10
13049;DHT22;6591;51.446;5.404;2022-07-25T08:31:46;28.40;81.10
13049;DHT22;6591;51.446;5.404;2022-07-25T08:34:13;28.40;81.00
13049;DHT22;6591;51.446;5.404;2022-07-25T08:36:41;28.40;81.10
13049;DHT22;6591;51.446;5.404;2022-07-25T08:39:08;28.70;81.00
13049;DHT22;6591;51.446;5.404;2022-07-25T08:41:39;28.70;80.60
13049;DHT22;6591;51.446;5.404;2022-07-25T08:44:08;28.80;80.70
13049;DHT22;6591;51.446;5.404;2022-07-25T08:46:36;28.90;80.90
13049;DHT22;6591;51.446;5.404;2022-07-25T08:49:07;31.10;82.80
13049;DHT22;6591;51.446;5.404;2022-07-25T08:51:45;29.20;80.60
13049;DHT22;6591;51.446;5.404;2022-07-25T08:54:17;29.30;79.90
13049;DHT22;6591;51.446;5.404;2022-07-25T08:56:48;29.50;79.30
13049;DHT22;6591;51.446;5.404;2022-07-25T08:59:15;29.60;79.20
13049;DHT22;6591;51.446;5.404;2022-07-25T09:01:42;29.80;79.20
13049;DHT22;6591;51.446;5.404;2022-07-25T09:04:09;31.40;79.40
13049;DHT22;6591;51.446;5.404;2022-07-25T09:06:48;30.10;77.40
13049;DHT22;6591;51.446;5.404;2022-07-25T09:09:17;31.00;77.90
13049;DHT22;6591;51.446;5.404;2022-07-25T09:11:44;30.20;77.00
13049;DHT22;6591;51.446;5.404;2022-07-25T09:14:14;30.30;76.10
13049;DHT22;6591;51.446;5.404;2022-07-25T09:16:43;30.60;76.10
13049;DHT22;6591;51.446;5.404;2022-07-25T09:19:29;32.00;77.40
13049;DHT22;6591;51.446;5.404;2022-07-25T09:22:04;30.20;76.50
13049;DHT22;6591;51.446;5.404;2022-07-25T09:24:36;30.40;76.30
13049;DHT22;6591;51.446;5.404;2022-07-25T09:27:10;31.50;76.10
13049;DHT22;6591;51.446;5.404;2022-07-25T09:29:40;31.30;74.90
13049;DHT22;6591;51.446;5.404;2022-07-25T09:32:21;30.40;74.20
13049;DHT22;6591;51.446;5.404;2022-07-25T09:34:49;31.10;74.80
13049;DHT22;6591;51.446;5.404;2022-07-25T09:37:18;32.20;75.70
13049;DHT22;6591;51.446;5.404;2022-07-25T09:39:55;30.40;74.10
13049;DHT22;6591;51.446;5.404;2022-07-25T09:42:30;30.40;73.20
13049;DHT22;6591;51.446;5.404;2022-07-25T09:45:09;30.30;72.30
13049;DHT22;6591;51.446;5.404;2022-07-25T09:47:55;30.20;72.60
13049;DHT22;6591;51.446;5.404;2022-07-25T09:50:27;30.20;72.70
13049;DHT22;6591;51.446;5.404;2022-07-25T09:53:01;30.10;72.60
13049;DHT22;6591;51.446;5.404;2022-07-25T09:55:29;30.00;72.70
13049;DHT22;6591;51.446;5.404;2022-07-25T09:57:58;30.10;72.90
13049;DHT22;6591;51.446;5.404;2022-07-25T10:00:27;30.20;72.30
13049;DHT22;6591;51.446;5.404;2022-07-25T10:06:23;30.60;71.40
13049;DHT22;6591;51.446;5.404;2022-07-25T10:09:00;30.90;70.50
13049;DHT22;6591;51.446;5.404;2022-07-25T10:11:27;31.10;70.30
13049;DHT22;6591;51.446;5.404;2022-07-25T10:13:55;31.30;69.20
13049;DHT22;6591;51.446;5.404;2022-07-25T10:16:24;31.40;68.60
13049;DHT22;6591;51.446;5.404;2022-07-25T10:18:58;31.50;68.50
13049;DHT22;6591;51.446;5.404;2022-07-25T10:21:26;31.60;68.30
13049;DHT22;6591;51.446;5.404;2022-07-25T10:24:05;31.70;68.30
13049;DHT22;6591;51.446;5.404;2022-07-25T10:26:39;31.90;68.80
13049;DHT22;6591;51.446;5.404;2022-07-25T10:29:18;32.10;68.50
13049;DHT22;6591;51.446;5.404;2022-07-25T10:31:45;32.20;66.30
13049;DHT22;6591;51.446;5.404;2022-07-25T10:34:28;32.40;65.30
13049;DHT22;6591;51.446;5.404;2022-07-25T10:37:18;32.60;64.80
13049;DHT22;6591;51.446;5.404;2022-07-25T10:39:53;32.50;64.50
13049;DHT22;6591;51.446;5.404;2022-07-25T10:42:21;32.60;65.10
13049;DHT22;6591;51.446;5.404;2022-07-25T10:44:53;32.80;64.50
13049;DHT22;6591;51.446;5.404;2022-07-25T10:47:26;33.00;62.80
13049;DHT22;6591;51.446;5.404;2022-07-25T10:50:00;33.00;61.90
13049;DHT22;6591;51.446;5.404;2022-07-25T10:52:58;34.00;61.60
13049;DHT22;6591;51.446;5.404;2022-07-25T10:55:28;33.30;60.50
13049;DHT22;6591;51.446;5.404;2022-07-25T10:58:03;33.40;60.20
13049;DHT22;6591;51.446;5.404;2022-07-25T11:00:43;33.40;59.70
13049;DHT22;6591;51.446;5.404;2022-07-25T11:03:19;33.50;59.80
13049;DHT22;6591;51.446;5.404;2022-07-25T11:05:50;33.50;59.50
13049;DHT22;6591;51.446;5.404;2022-07-25T11:08:32;32.20;58.90
13049;DHT22;6591;51.446;5.404;2022-07-25T11:11:02;33.60;59.10
13049;DHT22;6591;51.446;5.404;2022-07-25T11:13:34;33.60;58.80
13049;DHT22;6591;51.446;5.404;2022-07-25T11:16:09;33.40;57.90
13049;DHT22;6591;51.446;5.404;2022-07-25T11:18:40;33.40;57.80
13049;DHT22;6591;51.446;5.404;2022-07-25T11:21:08;33.10;58.00
13049;DHT22;6591;51.446;5.404;2022-07-25T11:23:58;32.90;58.10
13049;DHT22;6591;51.446;5.404;2022-07-25T11:26:27;34.40;59.70
13049;DHT22;6591;51.446;5.404;2022-07-25T11:28:57;32.60;58.80
13049;DHT22;6591;51.446;5.404;2022-07-25T11:31:24;32.50;58.80
13049;DHT22;6591;51.446;5.404;2022-07-25T11:33:52;32.50;59.10
13049;DHT22;6591;51.446;5.404;2022-07-25T11:36:19;32.30;58.70
13049;DHT22;6591;51.446;5.404;2022-07-25T11:38:47;32.20;58.50
13049;DHT22;6591;51.446;5.404;2022-07-25T11:41:15;32.00;58.50
13049;DHT22;6591;51.446;5.404;2022-07-25T11:43:47;31.90;59.20
13049;DHT22;6591;51.446;5.404;2022-07-25T11:46:15;31.80;59.60
13049;DHT22;6591;51.446;5.404;2022-07-25T11:48:44;31.80;59.90
13049;DHT22;6591;51.446;5.404;2022-07-25T11:51:18;31.70;59.90
13049;DHT22;6591;51.446;5.404;2022-07-25T11:53:47;31.80;59.90
13049;DHT22;6591;51.446;5.404;2022-07-25T11:56:19;31.80;60.10
13049;DHT22;6591;51.446;5.404;2022-07-25T11:59:10;31.90;60.10
13049;DHT22;6591;51.446;5.404;2022-07-25T12:01:40;33.90;60.70
13049;DHT22;6591;51.446;5.404;2022-07-25T12:04:19;32.00;58.90
13049;DHT22;6591;51.446;5.404;2022-07-25T12:06:47;32.10;58.40
13049;DHT22;6591;51.446;5.404;2022-07-25T12:09:19;32.10;59.00
13049;DHT22;6591;51.446;5.404;2022-07-25T12:11:48;31.90;58.70
13049;DHT22;6591;51.446;5.404;2022-07-25T12:14:16;31.90;58.50
13049;DHT22;6591;51.446;5.404;2022-07-25T12:16:43;31.70;58.90
13049;DHT22;6591;51.446;5.404;2022-07-25T12:19:18;31.50;58.60
13049;DHT22;6591;51.446;5.404;2022-07-25T12:22:11;31.40;59.00
13049;DHT22;6591;51.446;5.404;2022-07-25T12:24:39;31.30;59.50
13049;DHT22;6591;51.446;5.404;2022-07-25T12:27:06;31.20;58.50
13049;DHT22;6591;51.446;5.404;2022-07-25T12:29:34;31.10;58.20
13049;DHT22;6591;51.446;5.404;2022-07-25T12:32:01;31.10;58.50
13049;DHT22;6591;51.446;5.404;2022-07-25T12:34:31;31.00;58.50
13049;DHT22;6591;51.446;5.404;2022-07-25T12:36:58;30.90;58.70
13049;DHT22;6591;51.446;5.404;2022-07-25T12:39:26;30.80;58.70
13049;DHT22;6591;51.446;5.404;2022-07-25T12:41:53;30.60;58.70
13049;DHT22;6591;51.446;5.404;2022-07-25T12:44:20;30.50;59.00
13049;DHT22;6591;51.446;5.404;2022-07-25T12:46:47;30.30;59.20
13049;DHT22;6591;51.446;5.404;2022-07-25T12:49:15;30.10;59.10
13049;DHT22;6591;51.446;5.404;2022-07-25T12:51:42;29.90;59.20
13049;DHT22;6591;51.446;5.404;2022-07-25T12:54:34;29.70;59.60
13049;DHT22;6591;51.446;5.404;2022-07-25T12:57:05;29.50;60.00
13049;DHT22;6591;51.446;5.404;2022-07-25T12:59:32;30.50;61.50
13049;DHT22;6591;51.446;5.404;2022-07-25T13:01:59;29.30;61.00
13049;DHT22;6591;51.446;5.404;2022-07-25T13:04:28;29.20;61.50
13049;DHT22;6591;51.446;5.404;2022-07-25T13:06:56;29.10;61.70
13049;DHT22;6591;51.446;5.404;2022-07-25T13:09:24;29.00;62.00
13049;DHT22;6591;51.446;5.404;2022-07-25T13:11:56;29.50;62.60
13049;DHT22;6591;51.446;5.404;2022-07-25T13:14:24;29.00;62.50
13049;DHT22;6591;51.446;5.404;2022-07-25T13:16:52;29.10;62.90
13049;DHT22;6591;51.446;5.404;2022-07-25T13:19:20;29.20;63.30
13049;DHT22;6591;51.446;5.404;2022-07-25T13:21:48;29.30;63.00
13049;DHT22;6591;51.446;5.404;2022-07-25T13:24:15;29.40;62.40
13049;DHT22;6591;51.446;5.404;2022-07-25T13:26:44;29.70;62.70
13049;DHT22;6591;51.446;5.404;2022-07-25T13:29:11;30.10;63.30
13049;DHT22;6591;51.446;5.404;2022-07-25T13:31:39;30.40;62.60
13049;DHT22;6591;51.446;5.404;2022-07-25T13:34:08;31.60;63.10
13049;DHT22;6591;51.446;5.404;2022-07-25T13:36:37;31.00;61.70
13049;DHT22;6591;51.446;5.404;2022-07-25T13:39:05;31.30;60.40
13049;DHT22;6591;51.446;5.404;2022-07-25T13:41:32;31.70;60.00
13049;DHT22;6591;51.446;5.404;2022-07-25T13:44:00;31.90;59.00
13049;DHT22;6591;51.446;5.404;2022-07-25T13:46:27;32.00;58.40
13049;DHT22;6591;51.446;5.404;2022-07-25T13:48:57;32.00;57.80
13049;DHT22;6591;51.446;5.404;2022-07-25T13:51:24;31.90;57.60
13049;DHT22;6591;51.446;5.404;2022-07-25T13:53:51;31.80;57.60
13049;DHT22;6591;51.446;5.404;2022-07-25T13:56:21;31.80;57.80
13049;DHT22;6591;51.446;5.404;2022-07-25T13:58:48;31.70;58.00
13049;DHT22;6591;51.446;5.404;2022-07-25T14:01:15;31.50;58.20
13049;DHT22;6591;51.446;5.404;2022-07-25T14:03:42;31.90;58.70
13049;DHT22;6591;51.446;5.404;2022-07-25T14:06:13;32.20;58.90
13049;DHT22;6591;51.446;5.404;2022-07-25T14:08:40;32.00;58.60
13049;DHT22;6591;51.446;5.404;2022-07-25T14:11:07;32.30;58.30
13049;DHT22;6591;51.446;5.404;2022-07-25T14:13:34;32.60;57.50
13049;DHT22;6591;51.446;5.404;2022-07-25T14:16:03;32.80;57.20
13049;DHT22;6591;51.446;5.404;2022-07-25T14:18:30;33.00;56.50
13049;DHT22;6591;51.446;5.404;2022-07-25T14:20:58;33.30;55.30
13049;DHT22;6591;51.446;5.404;2022-07-25T14:23:29;33.90;55.20
13049;DHT22;6591;51.446;5.404;2022-07-25T14:25:59;33.40;54.90
13049;DHT22;6591;51.446;5.404;2022-07-25T14:28:29;33.00;54.90
13049;DHT22;6591;51.446;5.404;2022-07-25T14:30:57;33.00;55.00
13049;DHT22;6591;51.446;5.404;2022-07-25T14:33:25;33.10;54.80
13049;DHT22;6591;51.446;5.404;2022-07-25T14:35:54;33.10;54.30
13049;DHT22;6591;51.446;5.404;2022-07-25T14:38:21;33.20;54.00
13049;DHT22;6591;51.446;5.404;2022-07-25T14:41:13;33.30;54.00
13049;DHT22;6591;51.446;5.404;2022-07-25T14:43:41;33.60;53.40
13049;DHT22;6591;51.446;5.404;2022-07-25T14:46:08;33.70;52.10
13049;DHT22;6591;51.446;5.404;2022-07-25T14:48:36;33.60;51.40
13049;DHT22;6591;51.446;5.404;2022-07-25T14:51:05;33.50;50.70
13049;DHT22;6591;51.446;5.404;2022-07-25T14:53:33;33.30;51.80
13049;DHT22;6591;51.446;5.404;2022-07-25T14:56:02;33.00;51.20
13049;DHT22;6591;51.446;5.404;2022-07-25T14:58:34;33.00;51.20
13049;DHT22;6591;51.446;5.404;2022-07-25T15:01:03;32.80;50.40
13049;DHT22;6591;51.446;5.404;2022-07-25T15:03:31;32.50;50.90
13049;DHT22;6591;51.446;5.404;2022-07-25T15:06:00;32.40;51.40
13049;DHT22;6591;51.446;5.404;2022-07-25T15:08:28;32.20;51.40
13049;DHT22;6591;51.446;5.404;2022-07-25T15:10:56;32.10;51.30
13049;DHT22;6591;51.446;5.404;2022-07-25T15:13:27;32.00;51.30
13049;DHT22;6591;51.446;5.404;2022-07-25T15:15:57;31.80;51.20
13049;DHT22;6591;51.446;5.404;2022-07-25T15:18:24;31.60;50.70
13049;DHT22;6591;51.446;5.404;2022-07-25T15:20:52;31.30;51.10
13049;DHT22;6591;51.446;5.404;2022-07-25T15:23:21;31.20;52.00
13049;DHT22;6591;51.446;5.404;2022-07-25T15:25:51;31.00;52.50
13049;DHT22;6591;51.446;5.404;2022-07-25T15:28:33;31.10;52.90
13049;DHT22;6591;51.446;5.404;2022-07-25T15:31:05;31.10;53.00
13049;DHT22;6591;51.446;5.404;2022-07-25T15:33:33;31.20;52.70
13049;DHT22;6591;51.446;5.404;2022-07-25T15:36:00;31.80;52.70
13049;DHT22;6591;51.446;5.404;2022-07-25T15:38:27;31.10;52.00
13049;DHT22;6591;51.446;5.404;2022-07-25T15:40:55;31.20;51.80
13049;DHT22;6591;51.446;5.404;2022-07-25T15:43:23;31.10;51.90
13049;DHT22;6591;51.446;5.404;2022-07-25T15:46:16;31.10;52.40
13049;DHT22;6591;51.446;5.404;2022-07-25T15:48:43;31.00;52.30
13049;DHT22;6591;51.446;5.404;2022-07-25T15:51:14;30.90;52.20
13049;DHT22;6591;51.446;5.404;2022-07-25T15:53:45;30.90;52.60
13049;DHT22;6591;51.446;5.404;2022-07-25T15:56:14;31.00;52.90
13049;DHT22;6591;51.446;5.404;2022-07-25T15:58:46;32.50;53.20
13049;DHT22;6591;51.446;5.404;2022-07-25T16:01:18;31.30;51.20
13049;DHT22;6591;51.446;5.404;2022-07-25T16:03:45;31.40;50.80